sensor_id;sensor_type;location;lat;lon;timestamp;P1;durP1;ratioP1;P2;durP2;ratioP2
71806;SDS011;59655;42.590;23.364;2023-08-12T00:01:21;12.50;;;5.68;;
71806;SDS011;59655;42.590;23.364;2023-08-12T00:03:47;10.68;;;4.82;;
71806;SDS011;59655;42.590;23.364;2023-08-12T00:06:13;8.13;;;4.80;;
71806;SDS011;59655;42.590;23.364;2023-08-12T00:08:38;8.55;;;4.50;;
71806;SDS011;59655;42.590;23.364;2023-08-12T00:11:04;8.82;;;4.97;;
71806;SDS011;59655;42.590;23.364;2023-08-12T00:13:29;11.15;;;5.80;;
71806;SDS011;59655;42.590;23.364;2023-08-12T00:15:55;12.07;;;7.00;;
71806;SDS011;59655;42.590;23.364;2023-08-12T00:18:21;11.75;;;5.25;;
71806;SDS011;59655;42.590;23.364;2023-08-12T00:20:47;9.90;;;5.03;;
71806;SDS011;59655;42.590;23.364;2023-08-12T00:23:12;10.00;;;4.70;;
71806;SDS011;59655;42.590;23.364;2023-08-12T00:25:38;8.57;;;4.55;;
71806;SDS011;59655;42.590;23.364;2023-08-12T00:28:03;7.75;;;4.05;;
71806;SDS011;59655;42.590;23.364;2023-08-12T00:30:29;6.57;;;3.63;;
71806;SDS011;59655;42.590;23.364;2023-08-12T00:32:54;11.15;;;6.82;;
71806;SDS011;59655;42.590;23.364;2023-08-12T00:35:20;11.52;;;7.38;;
71806;SDS011;59655;42.590;23.364;2023-08-12T00:37:45;11.43;;;6.20;;
71806;SDS011;59655;42.590;23.364;2023-08-12T00:40:11;7.03;;;4.13;;
71806;SDS011;59655;42.590;23.364;2023-08-12T00:42:37;8.60;;;4.68;;
71806;SDS011;59655;42.590;23.364;2023-08-12T00:45:03;10.90;;;5.88;;
71806;SDS011;59655;42.590;23.364;2023-08-12T00:49:56;14.82;;;7.53;;
71806;SDS011;59655;42.590;23.364;2023-08-12T00:52:23;12.48;;;6.90;;
71806;SDS011;59655;42.590;23.364;2023-08-12T00:54:49;10.27;;;5.35;;
71806;SDS011;59655;42.590;23.364;2023-08-12T00:57:15;8.90;;;5.10;;
71806;SDS011;59655;42.590;23.364;2023-08-12T00:59:40;12.60;;;5.72;;
71806;SDS011;59655;42.590;23.364;2023-08-12T01:02:07;10.82;;;5.57;;
71806;SDS011;59655;42.590;23.364;2023-08-12T01:04:33;7.35;;;3.67;;
71806;SDS011;59655;42.590;23.364;2023-08-12T01:06:59;6.20;;;3.30;;
71806;SDS011;59655;42.590;23.364;2023-08-12T01:09:25;4.95;;;3.05;;
71806;SDS011;59655;42.590;23.364;2023-08-12T01:12:11;5.22;;;2.88;;
71806;SDS011;59655;42.590;23.364;2023-08-12T01:14:46;17.98;;;7.75;;
71806;SDS011;59655;42.590;23.364;2023-08-12T01:17:20;13.35;;;6.88;;
71806;SDS011;59655;42.590;23.364;2023-08-12T01:19:46;12.32;;;6.05;;
71806;SDS011;59655;42.590;23.364;2023-08-12T01:22:12;7.68;;;4.75;;
71806;SDS011;59655;42.590;23.364;2023-08-12T01:24:38;6.90;;;4.25;;
71806;SDS011;59655;42.590;23.364;2023-08-12T01:27:08;11.93;;;5.28;;
71806;SDS011;59655;42.590;23.364;2023-08-12T01:29:36;12.27;;;6.03;;
71806;SDS011;59655;42.590;23.364;2023-08-12T01:37:24;5.80;;;3.42;;
71806;SDS011;59655;42.590;23.364;2023-08-12T01:39:52;8.30;;;4.63;;
71806;SDS011;59655;42.590;23.364;2023-08-12T01:42:19;7.63;;;4.45;;
71806;SDS011;59655;42.590;23.364;2023-08-12T01:44:45;7.85;;;4.60;;
71806;SDS011;59655;42.590;23.364;2023-08-12T01:47:11;12.40;;;6.55;;
71806;SDS011;59655;42.590;23.364;2023-08-12T01:49:36;13.25;;;6.80;;
71806;SDS011;59655;42.590;23.364;2023-08-12T01:52:02;12.55;;;6.32;;
71806;SDS011;59655;42.590;23.364;2023-08-12T01:54:28;10.43;;;5.57;;
71806;SDS011;59655;42.590;23.364;2023-08-12T01:56:59;11.20;;;5.78;;
71806;SDS011;59655;42.590;23.364;2023-08-12T01:59:30;16.83;;;7.90;;
71806;SDS011;59655;42.590;23.364;2023-08-12T02:01:58;16.67;;;7.55;;
71806;SDS011;59655;42.590;23.364;2023-08-12T02:04:25;10.43;;;5.72;;
71806;SDS011;59655;42.590;23.364;2023-08-12T02:06:51;8.60;;;4.63;;
71806;SDS011;59655;42.590;23.364;2023-08-12T02:09:17;6.72;;;3.53;;
71806;SDS011;59655;42.590;23.364;2023-08-12T02:11:42;5.78;;;3.58;;
71806;SDS011;59655;42.590;23.364;2023-08-12T02:14:07;9.48;;;4.55;;
71806;SDS011;59655;42.590;23.364;2023-08-12T02:16:33;11.35;;;6.00;;
71806;SDS011;59655;42.590;23.364;2023-08-12T02:18:58;25.23;;;10.57;;
71806;SDS011;59655;42.590;23.364;2023-08-12T02:21:23;26.13;;;11.52;;
71806;SDS011;59655;42.590;23.364;2023-08-12T02:23:49;18.67;;;8.55;;
71806;SDS011;59655;42.590;23.364;2023-08-12T02:26:15;12.05;;;5.95;;
71806;SDS011;59655;42.590;23.364;2023-08-12T02:28:40;6.22;;;4.10;;
71806;SDS011;59655;42.590;23.364;2023-08-12T02:31:06;7.55;;;4.43;;
71806;SDS011;59655;42.590;23.364;2023-08-12T02:33:31;6.25;;;3.60;;
71806;SDS011;59655;42.590;23.364;2023-08-12T02:35:56;6.95;;;3.47;;
71806;SDS011;59655;42.590;23.364;2023-08-12T02:38:22;6.03;;;2.83;;
71806;SDS011;59655;42.590;23.364;2023-08-12T02:40:48;8.70;;;3.70;;
71806;SDS011;59655;42.590;23.364;2023-08-12T02:43:14;5.68;;;3.70;;
71806;SDS011;59655;42.590;23.364;2023-08-12T02:45:40;12.00;;;5.03;;
71806;SDS011;59655;42.590;23.364;2023-08-12T02:48:05;8.10;;;4.45;;
71806;SDS011;59655;42.590;23.364;2023-08-12T02:50:31;8.35;;;4.88;;
71806;SDS011;59655;42.590;23.364;2023-08-12T02:52:56;8.68;;;5.03;;
71806;SDS011;59655;42.590;23.364;2023-08-12T02:55:22;12.82;;;8.80;;
71806;SDS011;59655;42.590;23.364;2023-08-12T02:57:47;8.85;;;5.13;;
71806;SDS011;59655;42.590;23.364;2023-08-12T03:00:13;6.30;;;4.72;;
71806;SDS011;59655;42.590;23.364;2023-08-12T03:02:41;6.10;;;4.05;;
71806;SDS011;59655;42.590;23.364;2023-08-12T03:05:07;6.00;;;3.70;;
71806;SDS011;59655;42.590;23.364;2023-08-12T03:07:33;7.05;;;3.28;;
71806;SDS011;59655;42.590;23.364;2023-08-12T03:09:58;6.28;;;3.38;;
71806;SDS011;59655;42.590;23.364;2023-08-12T03:12:23;6.65;;;3.58;;
71806;SDS011;59655;42.590;23.364;2023-08-12T03:14:49;6.18;;;3.20;;
71806;SDS011;59655;42.590;23.364;2023-08-12T03:17:15;5.82;;;3.55;;
71806;SDS011;59655;42.590;23.364;2023-08-12T03:19:40;6.30;;;4.25;;
71806;SDS011;59655;42.590;23.364;2023-08-12T03:22:06;6.90;;;4.43;;
71806;SDS011;59655;42.590;23.364;2023-08-12T03:24:32;5.53;;;4.22;;
71806;SDS011;59655;42.590;23.364;2023-08-12T03:26:57;5.43;;;3.90;;
71806;SDS011;59655;42.590;23.364;2023-08-12T03:29:22;10.43;;;4.30;;
71806;SDS011;59655;42.590;23.364;2023-08-12T03:31:48;8.57;;;4.28;;
71806;SDS011;59655;42.590;23.364;2023-08-12T03:34:13;6.07;;;3.83;;
71806;SDS011;59655;42.590;23.364;2023-08-12T03:36:39;7.82;;;3.70;;
71806;SDS011;59655;42.590;23.364;2023-08-12T03:39:04;6.25;;;3.38;;
71806;SDS011;59655;42.590;23.364;2023-08-12T03:41:30;5.03;;;3.25;;
71806;SDS011;59655;42.590;23.364;2023-08-12T03:43:55;6.40;;;4.10;;
71806;SDS011;59655;42.590;23.364;2023-08-12T03:46:21;6.78;;;4.22;;
71806;SDS011;59655;42.590;23.364;2023-08-12T03:48:46;6.80;;;3.58;;
71806;SDS011;59655;42.590;23.364;2023-08-12T03:51:12;5.75;;;3.42;;
71806;SDS011;59655;42.590;23.364;2023-08-12T03:53:37;6.72;;;3.50;;
71806;SDS011;59655;42.590;23.364;2023-08-12T03:56:03;6.03;;;3.60;;
71806;SDS011;59655;42.590;23.364;2023-08-12T03:58:29;6.40;;;3.90;;
71806;SDS011;59655;42.590;23.364;2023-08-12T04:00:54;7.22;;;3.90;;
71806;SDS011;59655;42.590;23.364;2023-08-12T04:03:20;6.63;;;3.95;;
71806;SDS011;59655;42.590;23.364;2023-08-12T04:05:49;7.50;;;3.97;;
71806;SDS011;59655;42.590;23.364;2023-08-12T04:08:15;8.38;;;3.78;;
71806;SDS011;59655;42.590;23.364;2023-08-12T04:10:43;9.30;;;4.85;;
71806;SDS011;59655;42.590;23.364;2023-08-12T04:13:09;10.38;;;4.35;;
71806;SDS011;59655;42.590;23.364;2023-08-12T04:15:35;9.30;;;4.93;;
71806;SDS011;59655;42.590;23.364;2023-08-12T04:18:00;7.88;;;3.70;;
71806;SDS011;59655;42.590;23.364;2023-08-12T04:20:26;9.68;;;4.60;;
71806;SDS011;59655;42.590;23.364;2023-08-12T04:22:51;7.03;;;3.83;;
71806;SDS011;59655;42.590;23.364;2023-08-12T04:25:16;6.65;;;3.78;;
71806;SDS011;59655;42.590;23.364;2023-08-12T04:27:42;7.20;;;3.83;;
71806;SDS011;59655;42.590;23.364;2023-08-12T04:30:07;8.52;;;3.88;;
71806;SDS011;59655;42.590;23.364;2023-08-12T04:32:33;5.43;;;3.20;;
71806;SDS011;59655;42.590;23.364;2023-08-12T04:34:58;4.97;;;3.50;;
71806;SDS011;59655;42.590;23.364;2023-08-12T04:37:24;8.48;;;3.60;;
71806;SDS011;59655;42.590;23.364;2023-08-12T04:39:51;6.90;;;3.50;;
71806;SDS011;59655;42.590;23.364;2023-08-12T04:42:16;4.85;;;3.10;;
71806;SDS011;59655;42.590;23.364;2023-08-12T04:44:42;3.63;;;2.40;;
71806;SDS011;59655;42.590;23.364;2023-08-12T04:47:07;6.25;;;2.92;;
71806;SDS011;59655;42.590;23.364;2023-08-12T04:49:32;4.97;;;2.83;;
71806;SDS011;59655;42.590;23.364;2023-08-12T04:51:58;7.03;;;3.15;;
71806;SDS011;59655;42.590;23.364;2023-08-12T04:54:23;4.70;;;2.65;;
71806;SDS011;59655;42.590;23.364;2023-08-12T04:56:49;4.75;;;2.70;;
71806;SDS011;59655;42.590;23.364;2023-08-12T04:59:14;5.68;;;2.70;;
71806;SDS011;59655;42.590;23.364;2023-08-12T05:01:40;5.15;;;2.60;;
71806;SDS011;59655;42.590;23.364;2023-08-12T05:04:05;5.60;;;2.92;;
71806;SDS011;59655;42.590;23.364;2023-08-12T05:06:30;4.80;;;3.20;;
71806;SDS011;59655;42.590;23.364;2023-08-12T05:08:56;5.15;;;3.13;;
71806;SDS011;59655;42.590;23.364;2023-08-12T05:11:21;5.00;;;2.92;;
71806;SDS011;59655;42.590;23.364;2023-08-12T05:13:47;4.25;;;2.65;;
71806;SDS011;59655;42.590;23.364;2023-08-12T05:16:12;4.95;;;2.90;;
71806;SDS011;59655;42.590;23.364;2023-08-12T05:18:37;4.88;;;2.90;;
71806;SDS011;59655;42.590;23.364;2023-08-12T05:21:03;6.50;;;2.80;;
71806;SDS011;59655;42.590;23.364;2023-08-12T05:23:28;4.57;;;2.90;;
71806;SDS011;59655;42.590;23.364;2023-08-12T05:25:53;4.65;;;2.80;;
71806;SDS011;59655;42.590;23.364;2023-08-12T05:28:19;6.45;;;2.63;;
71806;SDS011;59655;42.590;23.364;2023-08-12T05:30:44;4.88;;;2.92;;
71806;SDS011;59655;42.590;23.364;2023-08-12T05:33:10;6.70;;;3.00;;
71806;SDS011;59655;42.590;23.364;2023-08-12T05:35:35;5.05;;;3.22;;
71806;SDS011;59655;42.590;23.364;2023-08-12T05:38:01;8.05;;;3.40;;
71806;SDS011;59655;42.590;23.364;2023-08-12T05:40:27;5.72;;;2.85;;
71806;SDS011;59655;42.590;23.364;2023-08-12T05:42:52;5.75;;;3.28;;
71806;SDS011;59655;42.590;23.364;2023-08-12T05:45:18;5.78;;;3.25;;
71806;SDS011;59655;42.590;23.364;2023-08-12T05:47:43;4.65;;;3.00;;
71806;SDS011;59655;42.590;23.364;2023-08-12T05:50:09;4.18;;;2.58;;
71806;SDS011;59655;42.590;23.364;2023-08-12T05:52:34;6.18;;;3.05;;
71806;SDS011;59655;42.590;23.364;2023-08-12T05:54:59;6.72;;;2.90;;
71806;SDS011;59655;42.590;23.364;2023-08-12T05:57:25;5.55;;;2.97;;
71806;SDS011;59655;42.590;23.364;2023-08-12T05:59:50;5.90;;;3.13;;
71806;SDS011;59655;42.590;23.364;2023-08-12T06:02:16;6.80;;;3.28;;
71806;SDS011;59655;42.590;23.364;2023-08-12T06:04:42;6.10;;;3.03;;
71806;SDS011;59655;42.590;23.364;2023-08-12T06:07:07;7.82;;;3.58;;
71806;SDS011;59655;42.590;23.364;2023-08-12T06:09:33;5.50;;;3.08;;
71806;SDS011;59655;42.590;23.364;2023-08-12T06:11:58;6.28;;;3.13;;
71806;SDS011;59655;42.590;23.364;2023-08-12T06:14:23;6.15;;;3.20;;
71806;SDS011;59655;42.590;23.364;2023-08-12T06:16:49;5.72;;;2.95;;
71806;SDS011;59655;42.590;23.364;2023-08-12T06:19:14;4.95;;;2.88;;
71806;SDS011;59655;42.590;23.364;2023-08-12T06:21:40;5.22;;;3.03;;
71806;SDS011;59655;42.590;23.364;2023-08-12T06:24:05;5.28;;;2.88;;
71806;SDS011;59655;42.590;23.364;2023-08-12T06:26:31;6.07;;;2.58;;
71806;SDS011;59655;42.590;23.364;2023-08-12T06:28:56;4.60;;;2.63;;
71806;SDS011;59655;42.590;23.364;2023-08-12T06:31:22;5.28;;;2.97;;
71806;SDS011;59655;42.590;23.364;2023-08-12T06:33:48;5.20;;;2.80;;
71806;SDS011;59655;42.590;23.364;2023-08-12T06:36:13;4.05;;;2.58;;
71806;SDS011;59655;42.590;23.364;2023-08-12T06:38:39;4.75;;;2.63;;
71806;SDS011;59655;42.590;23.364;2023-08-12T06:41:04;4.82;;;2.80;;
71806;SDS011;59655;42.590;23.364;2023-08-12T06:43:29;5.30;;;2.90;;
71806;SDS011;59655;42.590;23.364;2023-08-12T06:45:55;6.00;;;3.00;;
71806;SDS011;59655;42.590;23.364;2023-08-12T06:48:20;4.90;;;2.95;;
71806;SDS011;59655;42.590;23.364;2023-08-12T06:50:52;9.38;;;3.17;;
71806;SDS011;59655;42.590;23.364;2023-08-12T06:53:18;5.00;;;2.80;;
71806;SDS011;59655;42.590;23.364;2023-08-12T06:55:44;5.05;;;2.90;;
71806;SDS011;59655;42.590;23.364;2023-08-12T06:58:10;7.63;;;3.17;;
71806;SDS011;59655;42.590;23.364;2023-08-12T07:00:36;6.03;;;3.20;;
71806;SDS011;59655;42.590;23.364;2023-08-12T07:03:01;6.78;;;3.28;;
71806;SDS011;59655;42.590;23.364;2023-08-12T07:05:27;8.95;;;3.17;;
71806;SDS011;59655;42.590;23.364;2023-08-12T07:07:52;6.80;;;2.95;;
71806;SDS011;59655;42.590;23.364;2023-08-12T07:10:17;5.07;;;3.03;;
71806;SDS011;59655;42.590;23.364;2023-08-12T07:12:43;8.07;;;3.47;;
71806;SDS011;59655;42.590;23.364;2023-08-12T07:15:08;5.45;;;3.00;;
71806;SDS011;59655;42.590;23.364;2023-08-12T07:17:35;4.53;;;2.72;;
71806;SDS011;59655;42.590;23.364;2023-08-12T07:20:01;7.13;;;3.25;;
71806;SDS011;59655;42.590;23.364;2023-08-12T07:22:27;7.80;;;3.53;;
71806;SDS011;59655;42.590;23.364;2023-08-12T07:24:52;6.82;;;3.05;;
71806;SDS011;59655;42.590;23.364;2023-08-12T07:27:19;6.38;;;3.50;;
71806;SDS011;59655;42.590;23.364;2023-08-12T07:29:45;6.18;;;3.25;;
71806;SDS011;59655;42.590;23.364;2023-08-12T07:32:10;7.63;;;3.35;;
71806;SDS011;59655;42.590;23.364;2023-08-12T07:37:03;6.03;;;3.00;;
71806;SDS011;59655;42.590;23.364;2023-08-12T07:39:29;5.13;;;2.83;;
71806;SDS011;59655;42.590;23.364;2023-08-12T07:41:54;7.10;;;3.20;;
71806;SDS011;59655;42.590;23.364;2023-08-12T07:44:20;4.43;;;2.92;;
71806;SDS011;59655;42.590;23.364;2023-08-12T07:46:45;7.85;;;3.20;;
71806;SDS011;59655;42.590;23.364;2023-08-12T07:49:10;6.55;;;3.20;;
71806;SDS011;59655;42.590;23.364;2023-08-12T07:51:36;4.07;;;2.95;;
71806;SDS011;59655;42.590;23.364;2023-08-12T07:54:01;4.85;;;3.10;;
71806;SDS011;59655;42.590;23.364;2023-08-12T07:56:27;5.35;;;2.92;;
71806;SDS011;59655;42.590;23.364;2023-08-12T07:58:52;7.60;;;3.25;;
71806;SDS011;59655;42.590;23.364;2023-08-12T08:01:17;5.85;;;3.38;;
71806;SDS011;59655;42.590;23.364;2023-08-12T08:03:43;6.78;;;3.08;;
71806;SDS011;59655;42.590;23.364;2023-08-12T08:06:08;4.28;;;3.17;;
71806;SDS011;59655;42.590;23.364;2023-08-12T08:08:34;8.85;;;4.03;;
71806;SDS011;59655;42.590;23.364;2023-08-12T08:10:59;6.03;;;3.47;;
71806;SDS011;59655;42.590;23.364;2023-08-12T08:13:24;6.40;;;3.40;;
71806;SDS011;59655;42.590;23.364;2023-08-12T08:15:50;5.38;;;3.25;;
71806;SDS011;59655;42.590;23.364;2023-08-12T08:18:15;5.68;;;3.10;;
71806;SDS011;59655;42.590;23.364;2023-08-12T08:20:44;4.88;;;3.20;;
71806;SDS011;59655;42.590;23.364;2023-08-12T08:23:10;7.10;;;3.30;;
71806;SDS011;59655;42.590;23.364;2023-08-12T08:25:35;4.30;;;3.05;;
71806;SDS011;59655;42.590;23.364;2023-08-12T08:28:01;5.13;;;3.22;;
71806;SDS011;59655;42.590;23.364;2023-08-12T08:30:26;7.53;;;3.80;;
71806;SDS011;59655;42.590;23.364;2023-08-12T08:32:51;5.32;;;3.40;;
71806;SDS011;59655;42.590;23.364;2023-08-12T08:35:17;5.15;;;3.50;;
71806;SDS011;59655;42.590;23.364;2023-08-12T08:37:42;5.57;;;3.53;;
71806;SDS011;59655;42.590;23.364;2023-08-12T08:40:08;5.32;;;3.55;;
71806;SDS011;59655;42.590;23.364;2023-08-12T08:42:34;8.02;;;3.63;;
71806;SDS011;59655;42.590;23.364;2023-08-12T08:45:00;4.97;;;3.65;;
71806;SDS011;59655;42.590;23.364;2023-08-12T08:47:27;6.05;;;3.40;;
71806;SDS011;59655;42.590;23.364;2023-08-12T08:49:54;7.82;;;3.47;;
71806;SDS011;59655;42.590;23.364;2023-08-12T08:52:21;5.18;;;3.47;;
71806;SDS011;59655;42.590;23.364;2023-08-12T08:54:50;4.78;;;3.13;;
71806;SDS011;59655;42.590;23.364;2023-08-12T08:57:16;6.25;;;3.17;;
71806;SDS011;59655;42.590;23.364;2023-08-12T08:59:43;5.03;;;3.40;;
71806;SDS011;59655;42.590;23.364;2023-08-12T09:02:11;7.32;;;3.10;;
71806;SDS011;59655;42.590;23.364;2023-08-12T09:04:41;5.60;;;3.22;;
71806;SDS011;59655;42.590;23.364;2023-08-12T09:07:08;6.20;;;3.83;;
71806;SDS011;59655;42.590;23.364;2023-08-12T09:09:34;5.28;;;3.40;;
71806;SDS011;59655;42.590;23.364;2023-08-12T09:12:00;5.68;;;3.42;;
71806;SDS011;59655;42.590;23.364;2023-08-12T09:14:27;5.35;;;3.10;;
71806;SDS011;59655;42.590;23.364;2023-08-12T09:16:54;5.47;;;3.58;;
71806;SDS011;59655;42.590;23.364;2023-08-12T09:19:20;7.40;;;3.53;;
71806;SDS011;59655;42.590;23.364;2023-08-12T09:21:51;6.18;;;3.45;;
71806;SDS011;59655;42.590;23.364;2023-08-12T09:24:23;7.60;;;3.25;;
71806;SDS011;59655;42.590;23.364;2023-08-12T09:26:51;7.50;;;3.55;;
71806;SDS011;59655;42.590;23.364;2023-08-12T09:29:17;8.52;;;3.60;;
71806;SDS011;59655;42.590;23.364;2023-08-12T09:31:42;5.20;;;3.20;;
71806;SDS011;59655;42.590;23.364;2023-08-12T09:34:08;5.50;;;3.45;;
71806;SDS011;59655;42.590;23.364;2023-08-12T09:36:33;5.10;;;3.35;;
71806;SDS011;59655;42.590;23.364;2023-08-12T09:38:59;6.53;;;3.50;;
71806;SDS011;59655;42.590;23.364;2023-08-12T09:41:28;6.45;;;2.92;;
71806;SDS011;59655;42.590;23.364;2023-08-12T09:43:54;5.45;;;3.67;;
71806;SDS011;59655;42.590;23.364;2023-08-12T09:46:22;4.68;;;3.10;;
71806;SDS011;59655;42.590;23.364;2023-08-12T09:48:51;6.40;;;3.50;;
71806;SDS011;59655;42.590;23.364;2023-08-12T09:51:20;5.22;;;3.42;;
71806;SDS011;59655;42.590;23.364;2023-08-12T09:53:48;4.82;;;3.20;;
71806;SDS011;59655;42.590;23.364;2023-08-12T09:56:15;4.90;;;3.35;;
71806;SDS011;59655;42.590;23.364;2023-08-12T09:58:43;7.43;;;2.80;;
71806;SDS011;59655;42.590;23.364;2023-08-12T10:01:09;6.35;;;3.35;;
71806;SDS011;59655;42.590;23.364;2023-08-12T10:03:36;7.25;;;3.28;;
71806;SDS011;59655;42.590;23.364;2023-08-12T10:06:02;5.63;;;3.42;;
71806;SDS011;59655;42.590;23.364;2023-08-12T10:08:28;5.43;;;3.47;;
71806;SDS011;59655;42.590;23.364;2023-08-12T10:10:54;6.28;;;3.20;;
71806;SDS011;59655;42.590;23.364;2023-08-12T10:13:23;7.78;;;3.60;;
71806;SDS011;59655;42.590;23.364;2023-08-12T10:15:52;5.07;;;3.08;;
71806;SDS011;59655;42.590;23.364;2023-08-12T10:18:18;5.07;;;3.13;;
71806;SDS011;59655;42.590;23.364;2023-08-12T10:20:45;5.45;;;2.85;;
71806;SDS011;59655;42.590;23.364;2023-08-12T10:23:14;5.50;;;2.95;;
71806;SDS011;59655;42.590;23.364;2023-08-12T10:25:41;6.95;;;3.05;;
71806;SDS011;59655;42.590;23.364;2023-08-12T10:28:08;3.97;;;2.70;;
71806;SDS011;59655;42.590;23.364;2023-08-12T10:30:34;4.55;;;2.90;;
71806;SDS011;59655;42.590;23.364;2023-08-12T10:33:00;5.32;;;3.05;;
71806;SDS011;59655;42.590;23.364;2023-08-12T10:35:44;8.30;;;3.13;;
71806;SDS011;59655;42.590;23.364;2023-08-12T10:38:21;5.80;;;3.30;;
71806;SDS011;59655;42.590;23.364;2023-08-12T10:40:47;5.43;;;2.78;;
71806;SDS011;59655;42.590;23.364;2023-08-12T10:43:14;4.15;;;2.88;;
71806;SDS011;59655;42.590;23.364;2023-08-12T10:45:40;6.20;;;2.90;;
71806;SDS011;59655;42.590;23.364;2023-08-12T10:48:17;7.05;;;3.40;;
71806;SDS011;59655;42.590;23.364;2023-08-12T10:50:44;6.35;;;3.05;;
71806;SDS011;59655;42.590;23.364;2023-08-12T10:55:59;7.85;;;2.78;;
71806;SDS011;59655;42.590;23.364;2023-08-12T10:59:07;5.40;;;2.83;;
71806;SDS011;59655;42.590;23.364;2023-08-12T11:01:16;4.30;;;2.50;;
71806;SDS011;59655;42.590;23.364;2023-08-12T11:03:43;4.45;;;2.78;;
71806;SDS011;59655;42.590;23.364;2023-08-12T11:06:12;4.07;;;2.70;;
71806;SDS011;59655;42.590;23.364;2023-08-12T11:08:47;5.85;;;2.97;;
71806;SDS011;59655;42.590;23.364;2023-08-12T11:11:21;7.45;;;2.80;;
71806;SDS011;59655;42.590;23.364;2023-08-12T11:13:54;6.18;;;2.90;;
71806;SDS011;59655;42.590;23.364;2023-08-12T11:16:31;4.50;;;2.55;;
71806;SDS011;59655;42.590;23.364;2023-08-12T11:19:00;5.20;;;2.40;;
71806;SDS011;59655;42.590;23.364;2023-08-12T11:21:26;5.00;;;2.67;;
71806;SDS011;59655;42.590;23.364;2023-08-12T11:23:52;4.00;;;2.53;;
71806;SDS011;59655;42.590;23.364;2023-08-12T11:26:19;4.95;;;2.88;;
71806;SDS011;59655;42.590;23.364;2023-08-12T11:28:46;4.93;;;2.88;;
71806;SDS011;59655;42.590;23.364;2023-08-12T11:31:12;4.38;;;2.50;;
71806;SDS011;59655;42.590;23.364;2023-08-12T11:33:37;5.65;;;2.53;;
71806;SDS011;59655;42.590;23.364;2023-08-12T11:36:03;4.40;;;2.70;;
71806;SDS011;59655;42.590;23.364;2023-08-12T11:38:28;5.20;;;2.78;;
71806;SDS011;59655;42.590;23.364;2023-08-12T11:40:54;7.53;;;2.90;;
71806;SDS011;59655;42.590;23.364;2023-08-12T11:43:23;5.65;;;2.45;;
71806;SDS011;59655;42.590;23.364;2023-08-12T11:45:48;5.47;;;2.85;;
71806;SDS011;59655;42.590;23.364;2023-08-12T11:48:14;6.15;;;3.17;;
71806;SDS011;59655;42.590;23.364;2023-08-12T11:50:39;6.32;;;2.38;;
71806;SDS011;59655;42.590;23.364;2023-08-12T11:53:04;4.97;;;2.30;;
71806;SDS011;59655;42.590;23.364;2023-08-12T11:55:30;4.60;;;2.65;;
71806;SDS011;59655;42.590;23.364;2023-08-12T11:57:57;4.68;;;2.35;;
71806;SDS011;59655;42.590;23.364;2023-08-12T12:00:23;5.22;;;2.40;;
71806;SDS011;59655;42.590;23.364;2023-08-12T12:02:51;4.68;;;2.40;;
71806;SDS011;59655;42.590;23.364;2023-08-12T12:05:20;4.15;;;2.20;;
71806;SDS011;59655;42.590;23.364;2023-08-12T12:07:48;3.60;;;2.33;;
71806;SDS011;59655;42.590;23.364;2023-08-12T12:10:18;4.30;;;2.63;;
71806;SDS011;59655;42.590;23.364;2023-08-12T12:12:50;7.43;;;2.72;;
71806;SDS011;59655;42.590;23.364;2023-08-12T12:15:16;5.15;;;2.30;;
71806;SDS011;59655;42.590;23.364;2023-08-12T12:17:41;2.80;;;2.00;;
71806;SDS011;59655;42.590;23.364;2023-08-12T12:20:07;4.07;;;2.25;;
71806;SDS011;59655;42.590;23.364;2023-08-12T12:22:35;6.18;;;2.25;;
71806;SDS011;59655;42.590;23.364;2023-08-12T12:25:06;3.30;;;1.80;;
71806;SDS011;59655;42.590;23.364;2023-08-12T12:27:32;3.28;;;1.85;;
71806;SDS011;59655;42.590;23.364;2023-08-12T12:29:59;3.15;;;1.80;;
71806;SDS011;59655;42.590;23.364;2023-08-12T12:32:25;4.05;;;1.88;;
71806;SDS011;59655;42.590;23.364;2023-08-12T12:34:51;3.17;;;1.60;;
71806;SDS011;59655;42.590;23.364;2023-08-12T12:37:17;3.15;;;1.77;;
71806;SDS011;59655;42.590;23.364;2023-08-12T12:39:42;4.80;;;1.90;;
71806;SDS011;59655;42.590;23.364;2023-08-12T12:42:08;3.45;;;1.92;;
71806;SDS011;59655;42.590;23.364;2023-08-12T12:44:33;3.53;;;1.70;;
71806;SDS011;59655;42.590;23.364;2023-08-12T12:46:59;3.22;;;1.50;;
71806;SDS011;59655;42.590;23.364;2023-08-12T12:49:24;7.38;;;1.60;;
71806;SDS011;59655;42.590;23.364;2023-08-12T12:51:49;3.42;;;1.73;;
71806;SDS011;59655;42.590;23.364;2023-08-12T12:54:15;2.38;;;1.73;;
71806;SDS011;59655;42.590;23.364;2023-08-12T12:56:41;2.22;;;1.50;;
71806;SDS011;59655;42.590;23.364;2023-08-12T12:59:06;4.13;;;1.73;;
71806;SDS011;59655;42.590;23.364;2023-08-12T13:01:32;2.35;;;1.45;;
71806;SDS011;59655;42.590;23.364;2023-08-12T13:03:58;3.58;;;1.83;;
71806;SDS011;59655;42.590;23.364;2023-08-12T13:06:23;3.53;;;1.65;;
71806;SDS011;59655;42.590;23.364;2023-08-12T13:08:49;4.47;;;1.85;;
71806;SDS011;59655;42.590;23.364;2023-08-12T13:11:15;3.67;;;2.00;;
71806;SDS011;59655;42.590;23.364;2023-08-12T13:13:40;3.70;;;2.10;;
71806;SDS011;59655;42.590;23.364;2023-08-12T13:16:06;5.53;;;2.13;;
71806;SDS011;59655;42.590;23.364;2023-08-12T13:18:33;3.03;;;2.10;;
71806;SDS011;59655;42.590;23.364;2023-08-12T13:20:58;2.78;;;2.00;;
71806;SDS011;59655;42.590;23.364;2023-08-12T13:23:24;5.53;;;2.25;;
71806;SDS011;59655;42.590;23.364;2023-08-12T13:25:49;3.72;;;1.80;;
71806;SDS011;59655;42.590;23.364;2023-08-12T13:28:14;2.97;;;1.60;;
71806;SDS011;59655;42.590;23.364;2023-08-12T13:30:40;3.15;;;1.83;;
71806;SDS011;59655;42.590;23.364;2023-08-12T13:33:05;5.05;;;2.10;;
71806;SDS011;59655;42.590;23.364;2023-08-12T13:35:31;3.47;;;2.33;;
71806;SDS011;59655;42.590;23.364;2023-08-12T13:37:56;4.22;;;2.15;;
71806;SDS011;59655;42.590;23.364;2023-08-12T13:40:22;3.58;;;2.15;;
71806;SDS011;59655;42.590;23.364;2023-08-12T13:42:47;2.67;;;1.90;;
71806;SDS011;59655;42.590;23.364;2023-08-12T13:45:13;4.13;;;2.53;;
71806;SDS011;59655;42.590;23.364;2023-08-12T13:47:38;4.72;;;2.47;;
71806;SDS011;59655;42.590;23.364;2023-08-12T13:50:04;4.30;;;2.33;;
71806;SDS011;59655;42.590;23.364;2023-08-12T13:52:30;4.47;;;2.45;;
71806;SDS011;59655;42.590;23.364;2023-08-12T13:54:55;4.30;;;2.40;;
71806;SDS011;59655;42.590;23.364;2023-08-12T13:57:21;4.00;;;2.25;;
71806;SDS011;59655;42.590;23.364;2023-08-12T13:59:46;3.35;;;2.20;;
71806;SDS011;59655;42.590;23.364;2023-08-12T14:02:12;2.83;;;2.00;;
71806;SDS011;59655;42.590;23.364;2023-08-12T14:04:38;3.25;;;2.10;;
71806;SDS011;59655;42.590;23.364;2023-08-12T14:07:04;3.60;;;2.20;;
71806;SDS011;59655;42.590;23.364;2023-08-12T14:09:30;3.92;;;1.98;;
71806;SDS011;59655;42.590;23.364;2023-08-12T14:11:55;4.63;;;2.15;;
71806;SDS011;59655;42.590;23.364;2023-08-12T14:14:21;3.65;;;2.13;;
71806;SDS011;59655;42.590;23.364;2023-08-12T14:16:47;4.05;;;2.00;;
71806;SDS011;59655;42.590;23.364;2023-08-12T14:19:13;3.58;;;2.20;;
71806;SDS011;59655;42.590;23.364;2023-08-12T14:21:41;5.47;;;2.17;;
71806;SDS011;59655;42.590;23.364;2023-08-12T14:24:07;4.32;;;2.20;;
71806;SDS011;59655;42.590;23.364;2023-08-12T14:26:32;4.07;;;2.13;;
71806;SDS011;59655;42.590;23.364;2023-08-12T14:28:58;3.47;;;2.22;;
71806;SDS011;59655;42.590;23.364;2023-08-12T14:31:24;4.85;;;2.15;;
71806;SDS011;59655;42.590;23.364;2023-08-12T14:33:49;8.07;;;2.45;;
71806;SDS011;59655;42.590;23.364;2023-08-12T14:36:14;3.72;;;2.22;;
71806;SDS011;59655;42.590;23.364;2023-08-12T14:38:40;3.70;;;2.03;;
71806;SDS011;59655;42.590;23.364;2023-08-12T14:41:05;4.13;;;2.10;;